createdAt,value
2017-08-28T00:00:30.468Z,86.00
2017-08-28T00:02:58.602Z,85.90
2017-08-28T00:05:26.880Z,85.90
2017-08-28T00:07:55.017Z,86.40
2017-08-28T00:10:23.176Z,85.60
2017-08-28T00:12:51.352Z,85.60
2017-08-28T00:15:19.503Z,85.50
2017-08-28T00:17:47.650Z,85.50
2017-08-28T00:20:15.817Z,85.50
2017-08-28T00:22:43.950Z,85.40
2017-08-28T00:25:12.113Z,85.40
2017-08-28T00:27:40.249Z,85.30
2017-08-28T00:30:08.383Z,85.30
2017-08-28T00:32:36.563Z,85.50
2017-08-28T00:35:04.689Z,85.50
2017-08-28T00:37:32.835Z,85.40
2017-08-28T00:40:01.114Z,85.40
2017-08-28T00:42:29.258Z,85.40
2017-08-28T00:44:57.411Z,85.50
2017-08-28T00:47:25.592Z,85.70
2017-08-28T00:49:53.747Z,85.60
2017-08-28T00:52:21.913Z,85.60
2017-08-28T00:54:50.048Z,85.70
2017-08-28T00:57:18.201Z,85.70
2017-08-28T00:59:46.319Z,85.80
2017-08-28T01:02:14.577Z,85.90
2017-08-28T01:04:42.714Z,85.90
2017-08-28T01:07:10.845Z,85.90
2017-08-28T01:09:39.015Z,85.90
2017-08-28T01:12:07.137Z,85.90
2017-08-28T01:14:35.297Z,85.80
2017-08-28T01:17:03.425Z,85.90
2017-08-28T01:19:31.591Z,86.00
2017-08-28T01:21:59.728Z,85.90
2017-08-28T01:24:27.989Z,85.80
2017-08-28T01:26:56.142Z,85.70
2017-08-28T01:29:24.283Z,85.80
2017-08-28T01:31:52.450Z,85.80
2017-08-28T01:34:20.573Z,85.80
2017-08-28T01:36:48.711Z,85.80
2017-08-28T01:39:16.875Z,85.80
2017-08-28T01:41:45.012Z,85.80
2017-08-28T01:44:13.165Z,85.90
2017-08-28T01:46:41.288Z,85.90
2017-08-28T01:49:09.440Z,85.80
2017-08-28T01:51:37.583Z,85.80
2017-08-28T01:54:05.747Z,85.70
2017-08-28T01:56:33.882Z,85.70
2017-08-28T01:59:02.036Z,85.80
2017-08-28T02:01:30.217Z,85.80
2017-08-28T02:03:58.362Z,85.80
2017-08-28T02:06:26.522Z,85.80
2017-08-28T02:08:54.671Z,85.70
2017-08-28T02:11:22.837Z,85.80
2017-08-28T02:13:50.978Z,85.80
2017-08-28T02:16:19.105Z,85.90
2017-08-28T02:18:47.267Z,85.90
2017-08-28T02:21:15.407Z,85.90
2017-08-28T02:23:43.616Z,86.00
2017-08-28T02:26:11.751Z,86.10
2017-08-28T02:28:39.890Z,86.10
2017-08-28T02:31:08.055Z,86.10
2017-08-28T02:33:36.189Z,86.10
2017-08-28T02:36:04.352Z,86.10
2017-08-28T02:38:32.484Z,86.20
2017-08-28T02:41:00.618Z,86.20
2017-08-28T02:43:28.784Z,86.10
2017-08-28T02:45:56.909Z,86.00
2017-08-28T02:48:25.043Z,86.00
2017-08-28T02:50:53.199Z,85.80
2017-08-28T02:53:21.329Z,85.80
2017-08-28T02:55:49.495Z,85.70
2017-08-28T02:58:17.626Z,85.80
2017-08-28T03:00:45.767Z,86.30
2017-08-28T03:03:13.935Z,85.70
2017-08-28T03:05:42.061Z,86.30
2017-08-28T03:08:10.199Z,85.70
2017-08-28T03:10:38.376Z,85.70
2017-08-28T03:13:06.520Z,85.60
2017-08-28T03:15:34.657Z,85.60
2017-08-28T03:18:02.822Z,85.60
2017-08-28T03:20:30.949Z,85.50
2017-08-28T03:22:59.109Z,85.50
2017-08-28T03:25:27.250Z,85.60
2017-08-28T03:27:55.433Z,85.60
2017-08-28T03:30:23.562Z,85.70
2017-08-28T03:32:51.715Z,86.30
2017-08-28T03:35:19.906Z,85.80
2017-08-28T03:37:48.107Z,85.70
2017-08-28T03:40:16.268Z,85.70
2017-08-28T03:42:44.439Z,85.60
2017-08-28T03:45:12.568Z,85.70
2017-08-28T03:47:40.727Z,85.50
2017-08-28T03:50:08.857Z,85.50
2017-08-28T03:52:37.139Z,85.60
2017-08-28T03:55:05.266Z,85.60
2017-08-28T03:57:33.414Z,85.60
2017-08-28T04:00:01.587Z,85.70
2017-08-28T04:02:29.746Z,85.60
2017-08-28T04:04:57.900Z,85.60
2017-08-28T04:07:26.037Z,85.70
2017-08-28T04:09:54.178Z,85.70
2017-08-28T04:12:22.360Z,85.80
2017-08-28T04:14:50.509Z,86.00
2017-08-28T04:17:18.675Z,85.90
2017-08-28T04:19:46.835Z,86.00
2017-08-28T04:22:15.031Z,86.80
2017-08-28T04:24:43.158Z,86.20
2017-08-28T04:27:11.287Z,86.20
2017-08-28T04:29:39.461Z,86.30
2017-08-28T04:32:07.586Z,86.30
2017-08-28T04:34:35.741Z,86.20
2017-08-28T04:37:03.864Z,86.20
2017-08-28T04:39:32.125Z,86.30
2017-08-28T04:42:00.418Z,86.30
2017-08-28T04:44:28.568Z,86.30
2017-08-28T04:46:56.702Z,86.30
2017-08-28T04:49:24.874Z,86.90
2017-08-28T04:51:53.018Z,86.20
2017-08-28T04:54:21.179Z,86.20
2017-08-28T04:56:49.328Z,86.00
2017-08-28T04:59:17.478Z,85.90
2017-08-28T05:01:45.741Z,85.80
2017-08-28T05:04:13.887Z,85.80
2017-08-28T05:06:42.018Z,85.70
2017-08-28T05:09:10.191Z,85.70
2017-08-28T05:11:38.315Z,86.30
2017-08-28T05:14:06.472Z,85.70
2017-08-28T05:16:34.643Z,85.60
2017-08-28T05:19:02.768Z,85.50
2017-08-28T05:21:30.967Z,85.30
2017-08-28T05:23:59.099Z,85.10
2017-08-28T05:26:27.263Z,85.10
2017-08-28T05:28:55.396Z,85.00
2017-08-28T05:31:23.580Z,85.00
2017-08-28T05:33:51.853Z,85.00
2017-08-28T05:36:19.985Z,85.40
2017-08-28T05:38:48.150Z,85.30
2017-08-28T05:41:16.273Z,85.40
2017-08-28T05:43:44.438Z,85.20
2017-08-28T05:46:12.574Z,85.20
2017-08-28T05:48:40.740Z,85.10
2017-08-28T05:51:08.880Z,85.20
2017-08-28T05:53:37.009Z,85.10
2017-08-28T05:56:05.183Z,85.00
2017-08-28T05:58:33.334Z,85.00
2017-08-28T06:01:01.475Z,85.10
2017-08-28T06:03:29.638Z,85.00
2017-08-28T06:05:57.768Z,84.60
2017-08-28T06:08:25.899Z,84.10
2017-08-28T06:10:54.084Z,83.70
2017-08-28T06:13:22.269Z,83.20
2017-08-28T06:15:50.483Z,82.80
2017-08-28T06:18:18.689Z,81.50
2017-08-28T06:20:46.813Z,81.00
2017-08-28T06:23:14.986Z,80.70
2017-08-28T06:25:43.128Z,80.40
2017-08-28T06:28:11.306Z,79.40
2017-08-28T06:30:39.433Z,79.20
2017-08-28T06:33:07.565Z,79.10
2017-08-28T06:35:35.735Z,78.90
2017-08-28T06:38:03.887Z,78.70
2017-08-28T06:40:32.063Z,78.00
2017-08-28T06:43:00.213Z,77.90
2017-08-28T06:45:28.382Z,77.30
2017-08-28T06:47:56.505Z,76.80
2017-08-28T06:50:24.679Z,76.20
2017-08-28T06:52:52.824Z,75.30
2017-08-28T06:55:20.986Z,76.00
2017-08-28T06:57:49.114Z,76.00
2017-08-28T07:00:17.273Z,75.30
2017-08-28T07:02:45.407Z,75.50
2017-08-28T07:05:13.565Z,74.90
2017-08-28T07:07:41.723Z,74.90
2017-08-28T07:10:09.896Z,74.10
2017-08-28T07:12:38.018Z,73.40
2017-08-28T07:15:06.187Z,73.60
2017-08-28T07:17:34.319Z,72.50
2017-08-28T07:20:02.495Z,73.00
2017-08-28T07:22:30.637Z,72.80
2017-08-28T07:24:58.801Z,72.50
2017-08-28T07:27:26.946Z,72.40
2017-08-28T07:29:55.116Z,71.20
2017-08-28T07:32:23.260Z,71.30
2017-08-28T07:34:51.425Z,70.40
2017-08-28T07:37:19.570Z,70.20
2017-08-28T07:39:47.740Z,70.90
2017-08-28T07:42:15.887Z,71.00
2017-08-28T07:44:44.045Z,70.10
2017-08-28T07:47:12.190Z,69.60
2017-08-28T07:49:40.356Z,69.50
2017-08-28T07:52:08.494Z,69.20
2017-08-28T07:54:36.762Z,69.10
2017-08-28T07:57:04.897Z,69.50
2017-08-28T07:59:33.048Z,69.20
2017-08-28T08:02:01.220Z,68.10
2017-08-28T08:04:29.356Z,68.00
2017-08-28T08:06:57.522Z,68.70
2017-08-28T08:09:25.654Z,68.70
2017-08-28T08:11:53.913Z,68.50
2017-08-28T08:14:22.076Z,69.00
2017-08-28T08:16:50.245Z,69.70
2017-08-28T08:19:18.382Z,69.70
2017-08-28T08:21:46.570Z,70.00
2017-08-28T08:24:14.705Z,70.30
2017-08-28T08:26:42.864Z,69.80
2017-08-28T08:29:11.003Z,69.80
2017-08-28T08:31:39.250Z,70.70
2017-08-28T08:34:12.943Z,71.60
2017-08-28T08:36:41.132Z,72.20
2017-08-28T08:39:09.260Z,73.10
2017-08-28T08:41:37.441Z,73.90
2017-08-28T08:44:05.587Z,74.60
2017-08-28T08:46:33.745Z,75.30
2017-08-28T08:49:01.910Z,76.00
2017-08-28T08:51:30.070Z,75.90
2017-08-28T08:53:58.217Z,76.20
2017-08-28T08:56:26.384Z,76.60
2017-08-28T08:58:54.529Z,76.70
2017-08-28T09:01:22.760Z,77.40
2017-08-28T09:03:50.894Z,78.10
2017-08-28T09:06:19.068Z,78.60
2017-08-28T09:08:47.207Z,79.10
2017-08-28T09:11:15.370Z,79.50
2017-08-28T09:13:43.505Z,79.90
2017-08-28T09:16:11.672Z,80.20
2017-08-28T09:18:39.812Z,80.40
2017-08-28T09:21:07.963Z,80.70
2017-08-28T09:23:36.118Z,80.40
2017-08-28T09:26:04.271Z,80.20
2017-08-28T09:28:32.434Z,79.50
2017-08-28T09:31:00.552Z,78.50
2017-08-28T09:33:29.674Z,77.90
2017-08-28T09:35:57.815Z,76.90
2017-08-28T09:38:25.986Z,76.70
2017-08-28T09:40:54.118Z,76.90
2017-08-28T09:43:22.311Z,77.20
2017-08-28T09:45:50.451Z,77.70
2017-08-28T09:48:18.619Z,78.40
2017-08-28T09:50:46.751Z,78.80
2017-08-28T09:53:14.931Z,79.10
2017-08-28T09:55:43.064Z,79.70
2017-08-28T09:58:11.235Z,80.40
2017-08-28T10:00:39.373Z,81.10
2017-08-28T10:03:07.549Z,82.20
2017-08-28T10:05:35.702Z,82.20
2017-08-28T10:08:03.870Z,82.70
2017-08-28T10:10:32.004Z,83.30
2017-08-28T10:13:00.164Z,83.90
2017-08-28T10:15:28.289Z,84.80
2017-08-28T10:17:56.448Z,84.90
2017-08-28T10:20:24.593Z,84.90
2017-08-28T10:22:52.759Z,84.70
2017-08-28T10:25:20.901Z,85.10
2017-08-28T10:27:49.071Z,85.40
2017-08-28T10:30:17.210Z,85.90
2017-08-28T10:32:45.371Z,86.20
2017-08-28T10:35:13.510Z,86.40
2017-08-28T10:37:41.670Z,86.10
2017-08-28T10:40:09.817Z,86.60
2017-08-28T10:42:38.016Z,85.80
2017-08-28T10:45:06.171Z,84.90
2017-08-28T10:47:34.351Z,83.30
2017-08-28T10:50:02.531Z,82.20
2017-08-28T10:52:30.684Z,80.40
2017-08-28T10:54:58.845Z,79.40
2017-08-28T10:57:26.979Z,79.40
2017-08-28T10:59:55.158Z,79.20
2017-08-28T11:02:23.294Z,78.30
2017-08-28T11:04:51.476Z,77.00
2017-08-28T11:07:19.607Z,77.10
2017-08-28T11:09:47.768Z,76.10
2017-08-28T11:12:15.922Z,76.50
2017-08-28T11:14:44.108Z,75.10
2017-08-28T11:17:12.237Z,75.80
2017-08-28T11:19:40.386Z,75.70
2017-08-28T11:22:08.551Z,75.80
2017-08-28T11:24:36.695Z,75.60
2017-08-28T11:27:05.737Z,75.30
2017-08-28T11:29:33.880Z,75.80
2017-08-28T11:32:02.036Z,73.40
2017-08-28T11:34:30.210Z,73.30
2017-08-28T11:36:58.358Z,73.40
2017-08-28T11:39:26.522Z,72.60
2017-08-28T11:41:54.808Z,72.50
2017-08-28T11:44:22.973Z,73.00
2017-08-28T11:46:51.106Z,72.70
2017-08-28T11:49:19.262Z,72.10
2017-08-28T11:51:47.405Z,72.60
2017-08-28T11:54:15.525Z,72.80
2017-08-28T11:56:43.685Z,71.30
2017-08-28T11:59:11.827Z,69.60
2017-08-28T12:01:39.962Z,68.60
2017-08-28T12:04:08.134Z,69.30
2017-08-28T12:06:36.265Z,69.60
2017-08-28T12:09:04.405Z,68.40
2017-08-28T12:11:32.557Z,67.40
2017-08-28T12:14:00.679Z,68.00
2017-08-28T12:16:28.837Z,69.10
2017-08-28T12:18:56.986Z,68.90
2017-08-28T12:21:25.162Z,67.00
2017-08-28T12:23:53.286Z,68.10
2017-08-28T12:26:21.429Z,68.60
2017-08-28T12:28:49.610Z,68.40
2017-08-28T12:31:17.734Z,67.40
2017-08-28T12:33:46.011Z,67.70
2017-08-28T12:36:14.146Z,67.10
2017-08-28T12:38:42.299Z,67.60
2017-08-28T12:41:10.473Z,68.70
2017-08-28T12:43:38.602Z,66.40
2017-08-28T12:46:06.777Z,67.50
2017-08-28T12:48:34.917Z,68.10
2017-08-28T12:51:03.087Z,67.00
2017-08-28T12:53:31.236Z,66.90
2017-08-28T12:55:59.375Z,67.30
2017-08-28T12:58:27.543Z,68.50
2017-08-28T13:00:55.669Z,68.20
2017-08-28T13:03:23.835Z,67.50
2017-08-28T13:05:51.964Z,65.00
2017-08-28T13:08:20.217Z,65.40
2017-08-28T13:10:48.359Z,65.70
2017-08-28T13:13:16.486Z,66.80
2017-08-28T13:15:44.654Z,66.80
2017-08-28T13:18:12.787Z,66.60
2017-08-28T13:20:40.985Z,67.30
2017-08-28T13:23:09.136Z,67.10
2017-08-28T13:25:37.270Z,67.10
2017-08-28T13:28:05.456Z,67.60
2017-08-28T13:30:33.599Z,67.50
2017-08-28T13:33:01.764Z,67.40
2017-08-28T13:35:29.926Z,67.30
2017-08-28T13:37:58.062Z,66.90
2017-08-28T13:40:26.200Z,66.60
2017-08-28T13:42:54.374Z,66.30
2017-08-28T13:45:22.533Z,66.00
2017-08-28T13:47:50.707Z,66.00
2017-08-28T13:50:18.842Z,66.20
2017-08-28T13:52:47.005Z,65.90
2017-08-28T13:55:15.147Z,66.20
2017-08-28T13:57:43.312Z,66.80
2017-08-28T14:00:11.460Z,67.00
2017-08-28T14:02:39.616Z,67.30
2017-08-28T14:05:07.748Z,66.20
2017-08-28T14:07:35.921Z,66.20
2017-08-28T14:10:04.059Z,66.10
2017-08-28T14:12:32.239Z,66.30
2017-08-28T14:15:00.379Z,66.30
2017-08-28T14:17:28.544Z,65.20
2017-08-28T14:19:56.673Z,65.00
2017-08-28T14:22:24.909Z,65.30
2017-08-28T14:24:53.033Z,65.40
2017-08-28T14:27:21.194Z,63.40
2017-08-28T14:29:49.332Z,63.90
2017-08-28T14:32:17.796Z,64.10
2017-08-28T14:34:45.939Z,63.40
2017-08-28T14:37:14.143Z,63.00
2017-08-28T14:39:42.270Z,63.60
2017-08-28T14:42:10.437Z,64.50
2017-08-28T14:44:38.579Z,62.30
2017-08-28T14:47:06.733Z,62.90
2017-08-28T14:49:34.870Z,63.40
2017-08-28T14:52:03.033Z,64.10
2017-08-28T14:54:31.167Z,64.90
2017-08-28T14:56:59.346Z,65.80
2017-08-28T14:59:27.478Z,65.90
2017-08-28T15:01:55.629Z,64.70
2017-08-28T15:04:23.765Z,65.40
2017-08-28T15:06:51.901Z,65.80
2017-08-28T15:09:20.075Z,65.60
2017-08-28T15:11:48.207Z,66.40
2017-08-28T15:14:16.371Z,66.80
2017-08-28T15:16:44.524Z,66.20
2017-08-28T15:19:12.704Z,66.70
2017-08-28T15:21:40.852Z,66.40
2017-08-28T15:24:09.053Z,66.20
2017-08-28T15:26:37.188Z,65.80
2017-08-28T15:29:05.360Z,65.50
2017-08-28T15:31:33.541Z,65.40
2017-08-28T15:34:01.703Z,65.10
2017-08-28T15:36:29.843Z,65.60
2017-08-28T15:38:58.005Z,65.40
2017-08-28T15:41:26.147Z,65.60
2017-08-28T15:43:54.320Z,66.10
2017-08-28T15:46:22.460Z,66.20
2017-08-28T15:48:50.629Z,66.10
2017-08-28T15:51:18.761Z,65.40
2017-08-28T15:53:46.921Z,66.00
2017-08-28T15:56:15.059Z,65.80
2017-08-28T15:58:43.221Z,65.80
2017-08-28T16:01:11.349Z,66.00
2017-08-28T16:03:39.509Z,66.00
2017-08-28T16:06:07.667Z,65.30
2017-08-28T16:08:35.897Z,65.80
2017-08-28T16:11:04.041Z,65.80
2017-08-28T16:13:32.214Z,66.00
2017-08-28T16:16:00.359Z,66.30
2017-08-28T16:18:28.529Z,66.10
2017-08-28T16:20:56.680Z,66.80
2017-08-28T16:23:24.854Z,66.50
2017-08-28T16:25:52.999Z,66.70
2017-08-28T16:28:21.183Z,66.80
2017-08-28T16:30:49.322Z,67.40
2017-08-28T16:33:17.600Z,67.20
2017-08-28T16:35:45.730Z,67.50
2017-08-28T16:38:13.871Z,67.40
2017-08-28T16:40:42.037Z,68.20
2017-08-28T16:43:10.169Z,67.30
2017-08-28T16:45:38.371Z,67.10
2017-08-28T16:48:06.501Z,67.00
2017-08-28T16:50:34.679Z,67.90
2017-08-28T16:53:02.810Z,67.20
2017-08-28T16:55:30.980Z,67.50
2017-08-28T16:57:59.101Z,67.30
2017-08-28T17:00:27.278Z,67.40
2017-08-28T17:02:55.414Z,67.50
2017-08-28T17:05:23.583Z,68.30
2017-08-28T17:07:51.718Z,69.10
2017-08-28T17:10:19.886Z,68.90
2017-08-28T17:12:48.013Z,69.40
2017-08-28T17:15:16.183Z,69.70
2017-08-28T17:17:44.329Z,69.40
2017-08-28T17:20:12.487Z,70.20
2017-08-28T17:22:46.470Z,70.80
2017-08-28T17:25:14.633Z,71.40
2017-08-28T17:27:42.777Z,71.90
2017-08-28T17:30:11.211Z,72.20
2017-08-28T17:32:39.345Z,71.70
2017-08-28T17:35:07.512Z,72.10
2017-08-28T17:37:35.646Z,72.20
2017-08-28T17:40:03.814Z,73.10
2017-08-28T17:42:31.947Z,73.40
2017-08-28T17:45:00.130Z,73.30
2017-08-28T17:47:28.260Z,73.00
2017-08-28T17:49:56.431Z,73.80
2017-08-28T17:52:24.563Z,74.60
2017-08-28T17:54:52.736Z,75.10
2017-08-28T17:57:20.879Z,75.30
2017-08-28T17:59:49.039Z,75.40
2017-08-28T18:02:17.184Z,75.50
2017-08-28T18:04:45.340Z,75.80
2017-08-28T18:07:13.475Z,75.90
2017-08-28T18:09:41.613Z,76.30
2017-08-28T18:12:09.777Z,76.80
2017-08-28T18:14:37.929Z,76.90
2017-08-28T18:17:06.109Z,77.40
2017-08-28T18:19:34.250Z,77.50
2017-08-28T18:22:02.423Z,77.70
2017-08-28T18:24:30.554Z,78.10
2017-08-28T18:26:58.714Z,78.30
2017-08-28T18:29:26.882Z,78.50
2017-08-28T18:31:55.056Z,78.80
2017-08-28T18:34:23.199Z,78.90
2017-08-28T18:36:51.366Z,79.10
2017-08-28T18:39:19.498Z,79.40
2017-08-28T18:41:47.663Z,79.70
2017-08-28T18:44:15.789Z,79.80
2017-08-28T18:46:43.953Z,80.00
2017-08-28T18:49:12.096Z,80.40
2017-08-28T18:51:40.237Z,80.60
2017-08-28T18:54:08.419Z,80.70
2017-08-28T18:56:36.601Z,80.90
2017-08-28T18:59:04.751Z,81.00
2017-08-28T19:01:32.935Z,81.30
2017-08-28T19:04:01.077Z,81.40
2017-08-28T19:06:29.255Z,81.70
2017-08-28T19:08:57.466Z,81.90
2017-08-28T19:11:25.643Z,82.20
2017-08-28T19:13:53.804Z,82.90
2017-08-28T19:16:21.961Z,82.40
2017-08-28T19:18:50.108Z,82.40
2017-08-28T19:21:18.288Z,82.70
2017-08-28T19:23:46.447Z,82.60
2017-08-28T19:26:14.621Z,82.80
2017-08-28T19:28:42.763Z,83.00
2017-08-28T19:31:10.939Z,83.10
2017-08-28T19:33:43.250Z,83.30
2017-08-28T19:36:11.432Z,83.30
2017-08-28T19:38:39.575Z,83.50
2017-08-28T19:41:07.719Z,83.60
2017-08-28T19:43:35.891Z,83.80
2017-08-28T19:46:04.089Z,84.00
2017-08-28T19:48:32.263Z,84.70
2017-08-28T19:51:00.458Z,84.20
2017-08-28T19:53:28.707Z,84.10
2017-08-28T19:55:56.883Z,84.20
2017-08-28T19:58:25.062Z,84.30
2017-08-28T20:00:53.212Z,84.40
2017-08-28T20:03:21.395Z,84.60
2017-08-28T20:05:49.541Z,84.80
2017-08-28T20:08:17.717Z,84.90
2017-08-28T20:10:45.863Z,84.90
2017-08-28T20:13:14.033Z,84.90
2017-08-28T20:15:42.169Z,84.80
2017-08-28T20:18:10.340Z,85.10
2017-08-28T20:20:38.472Z,84.80
2017-08-28T20:23:06.637Z,84.70
2017-08-28T20:25:34.776Z,84.90
2017-08-28T20:28:02.946Z,84.90
2017-08-28T20:30:31.078Z,85.10
2017-08-28T20:33:00.042Z,85.10
2017-08-28T20:35:28.191Z,85.30
2017-08-28T20:37:56.357Z,85.40
2017-08-28T20:40:24.489Z,85.90
2017-08-28T20:42:54.799Z,85.50
2017-08-28T20:45:22.942Z,85.60
2017-08-28T20:47:51.100Z,85.60
2017-08-28T20:50:19.233Z,85.60
2017-08-28T20:52:47.395Z,85.60
2017-08-28T20:55:15.531Z,85.80
2017-08-28T20:57:43.697Z,85.70
2017-08-28T21:00:11.838Z,85.70
2017-08-28T21:02:40.106Z,85.70
2017-08-28T21:05:08.253Z,85.60
2017-08-28T21:07:36.398Z,85.70
2017-08-28T21:10:04.570Z,85.70
2017-08-28T21:12:32.720Z,85.70
2017-08-28T21:15:00.888Z,86.00
2017-08-28T21:17:29.059Z,86.20
2017-08-28T21:19:57.238Z,86.40
2017-08-28T21:22:25.387Z,86.40
2017-08-28T21:24:53.546Z,86.40
2017-08-28T21:27:21.681Z,86.30
2017-08-28T21:29:49.849Z,86.30
2017-08-28T21:32:17.980Z,86.20
2017-08-28T21:34:46.151Z,86.20
2017-08-28T21:37:14.300Z,86.20
2017-08-28T21:39:42.475Z,86.20
2017-08-28T21:42:10.618Z,86.20
2017-08-28T21:44:38.789Z,86.40
2017-08-28T21:47:06.921Z,86.60
2017-08-28T21:49:35.091Z,86.80
2017-08-28T21:52:03.243Z,86.90
2017-08-28T21:54:31.422Z,87.00
2017-08-28T21:56:59.558Z,87.00
2017-08-28T21:59:27.726Z,86.90
2017-08-28T22:01:55.867Z,86.70
2017-08-28T22:04:24.040Z,86.60
2017-08-28T22:06:52.178Z,86.70
2017-08-28T22:09:20.358Z,86.50
2017-08-28T22:11:48.487Z,86.50
2017-08-28T22:14:16.662Z,86.50
2017-08-28T22:16:44.803Z,86.50
2017-08-28T22:19:12.965Z,86.50
2017-08-28T22:21:41.115Z,86.50
2017-08-28T22:24:09.298Z,86.50
2017-08-28T22:26:37.435Z,86.50
2017-08-28T22:29:05.607Z,87.10
2017-08-28T22:31:33.733Z,86.50
2017-08-28T22:34:02.014Z,86.50
2017-08-28T22:36:30.144Z,86.50
2017-08-28T22:38:58.282Z,86.50
2017-08-28T22:41:26.450Z,86.50
2017-08-28T22:43:54.581Z,86.50
2017-08-28T22:46:22.847Z,86.50
2017-08-28T22:48:50.990Z,86.50
2017-08-28T22:51:19.158Z,86.50
2017-08-28T22:53:47.298Z,86.60
2017-08-28T22:56:15.467Z,86.60
2017-08-28T22:58:43.592Z,86.50
2017-08-28T23:01:11.763Z,86.40
2017-08-28T23:03:39.908Z,86.30
2017-08-28T23:06:08.066Z,86.30
2017-08-28T23:08:36.204Z,86.50
2017-08-28T23:11:04.377Z,86.40
2017-08-28T23:13:32.538Z,86.40
2017-08-28T23:16:00.711Z,86.40
2017-08-28T23:18:28.851Z,86.50
2017-08-28T23:20:57.023Z,86.50
2017-08-28T23:23:25.162Z,86.50
2017-08-28T23:25:53.472Z,87.10
2017-08-28T23:28:21.648Z,86.40
2017-08-28T23:30:49.790Z,86.60
2017-08-28T23:33:17.958Z,86.90
2017-08-28T23:35:46.085Z,87.00
2017-08-28T23:38:14.246Z,87.10
2017-08-28T23:40:42.372Z,87.20
2017-08-28T23:43:10.518Z,87.00
2017-08-28T23:45:38.685Z,87.00
2017-08-28T23:48:06.825Z,86.80
2017-08-28T23:50:35.001Z,86.40
2017-08-28T23:53:03.147Z,86.40
2017-08-28T23:55:31.327Z,86.40
2017-08-28T23:57:59.462Z,86.40
